createdAt,value
2022-10-21T00:02:10.228Z,14.40
2022-10-21T00:04:37.988Z,14.42
2022-10-21T00:07:05.625Z,14.42
2022-10-21T00:09:33.471Z,14.44
2022-10-21T00:12:01.155Z,14.46
2022-10-21T00:14:28.857Z,14.46
2022-10-21T00:16:56.482Z,14.46
2022-10-21T00:19:25.544Z,14.46
2022-10-21T00:21:53.226Z,14.45
2022-10-21T00:24:20.828Z,14.45
2022-10-21T00:26:50.499Z,14.43
2022-10-21T00:29:18.229Z,14.44
2022-10-21T00:31:45.889Z,14.42
2022-10-21T00:34:13.646Z,14.45
2022-10-21T00:36:42.661Z,14.47
2022-10-21T00:39:10.269Z,14.48
2022-10-21T00:41:37.957Z,14.51
2022-10-21T00:44:07.299Z,14.52
2022-10-21T00:46:38.789Z,14.51
2022-10-21T00:49:10.360Z,14.52
2022-10-21T00:51:38.598Z,14.51
2022-10-21T00:54:07.825Z,14.50
2022-10-21T00:56:35.987Z,14.52
2022-10-21T00:59:05.323Z,14.51
2022-10-21T01:01:33.229Z,14.52
2022-10-21T01:04:03.650Z,14.52
2022-10-21T01:06:32.047Z,14.56
2022-10-21T01:09:00.544Z,14.56
2022-10-21T01:11:31.426Z,14.58
2022-10-21T01:14:09.221Z,14.58
2022-10-21T01:16:48.128Z,14.56
2022-10-21T01:19:30.579Z,14.53
2022-10-21T01:22:00.398Z,14.64
2022-10-21T01:24:54.973Z,14.65
2022-10-21T01:27:30.135Z,14.68
2022-10-21T01:30:15.977Z,14.67
2022-10-21T01:32:53.416Z,14.67
2022-10-21T01:35:22.780Z,14.71
2022-10-21T01:37:57.240Z,14.69
2022-10-21T01:40:28.155Z,14.72
2022-10-21T01:42:58.301Z,14.69
2022-10-21T01:45:30.972Z,14.72
2022-10-21T01:48:03.018Z,14.73
2022-10-21T01:50:34.721Z,14.72
2022-10-21T01:53:07.587Z,14.71
2022-10-21T01:55:35.927Z,14.71
2022-10-21T01:58:05.383Z,14.67
2022-10-21T02:00:34.322Z,14.72
2022-10-21T02:03:06.379Z,14.73
2022-10-21T02:05:35.578Z,14.69
2022-10-21T02:08:03.431Z,14.74
2022-10-21T02:10:34.878Z,14.74
2022-10-21T02:13:05.330Z,14.74
2022-10-21T02:15:34.185Z,14.75
2022-10-21T02:18:06.011Z,14.74
2022-10-21T02:20:37.330Z,14.77
2022-10-21T02:23:06.282Z,14.78
2022-10-21T02:25:35.786Z,14.75
2022-10-21T02:28:04.830Z,14.78
2022-10-21T02:30:40.506Z,14.79
2022-10-21T02:33:12.337Z,14.78
2022-10-21T02:35:45.195Z,14.77
2022-10-21T02:38:18.610Z,14.79
2022-10-21T02:40:49.479Z,14.77
2022-10-21T02:43:20.102Z,14.77
2022-10-21T02:45:48.265Z,14.81
2022-10-21T02:48:17.789Z,14.80
2022-10-21T02:50:45.419Z,14.79
2022-10-21T02:53:14.712Z,14.78
2022-10-21T02:55:42.602Z,14.77
2022-10-21T02:58:10.374Z,14.76
2022-10-21T03:00:38.021Z,14.72
2022-10-21T03:03:05.786Z,14.72
2022-10-21T03:05:34.843Z,14.71
2022-10-21T03:08:02.548Z,14.70
2022-10-21T03:10:30.200Z,14.69
2022-10-21T03:12:57.937Z,14.69
2022-10-21T03:15:25.627Z,14.66
2022-10-21T03:17:53.309Z,14.68
2022-10-21T03:20:20.996Z,14.69
2022-10-21T03:22:50.069Z,14.70
2022-10-21T03:25:17.983Z,14.71
2022-10-21T03:27:45.661Z,14.69
2022-10-21T03:30:13.303Z,14.72
2022-10-21T03:32:41.222Z,14.71
2022-10-21T03:35:09.588Z,14.72
2022-10-21T03:37:37.270Z,14.70
2022-10-21T03:40:11.478Z,14.70
2022-10-21T03:42:40.498Z,14.69
2022-10-21T03:45:09.650Z,14.69
2022-10-21T03:47:37.353Z,14.69
2022-10-21T03:50:08.919Z,14.69
2022-10-21T03:52:40.418Z,14.70
2022-10-21T03:55:10.396Z,14.69
2022-10-21T03:57:38.444Z,14.72
2022-10-21T04:00:07.535Z,14.73
2022-10-21T04:02:35.350Z,14.73
2022-10-21T04:05:03.110Z,14.74
2022-10-21T04:07:30.718Z,14.76
2022-10-21T04:09:58.326Z,14.76
2022-10-21T04:12:27.379Z,14.75
2022-10-21T04:14:55.006Z,14.74
2022-10-21T04:17:22.628Z,14.75
2022-10-21T04:19:50.278Z,14.73
2022-10-21T04:22:17.905Z,14.72
2022-10-21T04:24:45.549Z,14.70
2022-10-21T04:27:13.248Z,14.72
2022-10-21T04:29:42.344Z,14.72
2022-10-21T04:32:10.011Z,14.72
2022-10-21T04:34:37.698Z,14.70
2022-10-21T04:37:05.502Z,14.74
2022-10-21T04:39:33.236Z,14.75
2022-10-21T04:42:00.881Z,14.76
2022-10-21T04:44:28.518Z,14.73
2022-10-21T04:46:57.513Z,14.79
2022-10-21T04:49:25.148Z,14.76
2022-10-21T04:51:52.806Z,14.79
2022-10-21T04:54:20.590Z,14.77
2022-10-21T04:56:48.354Z,14.80
2022-10-21T04:59:16.026Z,14.81
2022-10-21T05:01:43.699Z,14.81
2022-10-21T05:04:12.786Z,14.81
2022-10-21T05:06:40.707Z,14.73
2022-10-21T05:09:10.056Z,14.79
2022-10-21T05:11:37.736Z,14.79
2022-10-21T05:14:05.370Z,14.78
2022-10-21T05:16:33.036Z,14.77
2022-10-21T05:19:00.749Z,14.78
2022-10-21T05:21:29.862Z,14.75
2022-10-21T05:23:57.571Z,14.78
2022-10-21T05:26:25.228Z,14.80
2022-10-21T05:28:52.835Z,14.79
2022-10-21T05:31:20.418Z,14.80
2022-10-21T05:33:48.058Z,14.81
2022-10-21T05:36:17.561Z,14.79
2022-10-21T05:38:48.585Z,14.80
2022-10-21T05:41:17.073Z,14.80
2022-10-21T05:43:44.729Z,14.79
2022-10-21T05:46:12.494Z,14.79
2022-10-21T05:48:40.202Z,14.77
2022-10-21T05:51:08.661Z,14.75
2022-10-21T05:53:36.576Z,14.77
2022-10-21T05:56:07.464Z,14.70
2022-10-21T05:58:35.575Z,14.74
2022-10-21T06:01:03.824Z,14.74
2022-10-21T06:03:33.332Z,14.72
2022-10-21T06:06:02.364Z,14.75
2022-10-21T06:08:30.814Z,14.74
2022-10-21T06:11:02.554Z,14.72
2022-10-21T06:13:31.967Z,14.73
2022-10-21T06:15:59.811Z,14.75
2022-10-21T06:18:28.056Z,14.74
2022-10-21T06:20:55.763Z,14.73
2022-10-21T06:23:23.544Z,14.74
2022-10-21T06:25:57.964Z,14.73
2022-10-21T06:28:25.946Z,14.73
2022-10-21T06:30:55.206Z,14.73
2022-10-21T06:33:26.172Z,14.73
2022-10-21T06:35:55.056Z,14.72
2022-10-21T06:38:22.721Z,14.72
2022-10-21T06:40:50.374Z,14.72
2022-10-21T06:43:18.114Z,14.70
2022-10-21T06:45:46.205Z,14.70
2022-10-21T06:48:15.217Z,14.68
2022-10-21T06:50:42.859Z,14.68
2022-10-21T06:53:10.544Z,14.69
2022-10-21T06:55:38.140Z,14.70
2022-10-21T06:58:05.788Z,14.70
2022-10-21T07:00:33.791Z,14.64
2022-10-21T07:03:01.380Z,14.71
2022-10-21T07:05:30.428Z,14.73
2022-10-21T07:07:58.059Z,14.76
2022-10-21T07:10:25.759Z,14.78
2022-10-21T07:12:53.442Z,14.78
2022-10-21T07:15:21.393Z,14.80
2022-10-21T07:17:48.968Z,14.85
2022-10-21T07:20:16.731Z,14.88
2022-10-21T07:22:45.789Z,14.88
2022-10-21T07:25:13.782Z,14.97
2022-10-21T07:27:43.555Z,15.02
2022-10-21T07:30:13.842Z,15.03
2022-10-21T07:32:41.510Z,15.10
2022-10-21T07:35:09.510Z,15.11
2022-10-21T07:37:37.403Z,15.12
2022-10-21T07:40:09.146Z,15.14
2022-10-21T07:42:36.892Z,15.19
2022-10-21T07:45:04.935Z,15.19
2022-10-21T07:47:32.636Z,15.18
2022-10-21T07:50:00.279Z,15.16
2022-10-21T07:52:28.186Z,15.18
2022-10-21T07:54:57.277Z,15.16
2022-10-21T07:57:26.332Z,15.13
2022-10-21T07:59:54.018Z,15.14
2022-10-21T08:02:23.959Z,15.15
2022-10-21T08:04:52.146Z,15.14
2022-10-21T08:07:19.813Z,15.16
2022-10-21T08:09:47.438Z,15.17
2022-10-21T08:12:15.492Z,15.18
2022-10-21T08:14:44.739Z,15.20
2022-10-21T08:17:12.331Z,15.15
2022-10-21T08:19:39.978Z,15.26
2022-10-21T08:22:07.826Z,15.32
2022-10-21T08:24:39.875Z,15.37
2022-10-21T08:27:09.957Z,15.37
2022-10-21T08:29:39.903Z,15.39
2022-10-21T08:32:09.520Z,15.42
2022-10-21T08:34:38.230Z,15.46
2022-10-21T08:37:05.994Z,15.50
2022-10-21T08:39:33.663Z,15.50
2022-10-21T08:42:08.067Z,15.49
2022-10-21T08:44:46.174Z,15.55
2022-10-21T08:47:24.031Z,15.57
2022-10-21T08:49:57.353Z,15.58
2022-10-21T08:52:28.488Z,15.62
2022-10-21T08:54:58.458Z,15.65
2022-10-21T08:57:26.458Z,15.66
2022-10-21T08:59:54.616Z,15.67
2022-10-21T09:02:41.549Z,15.69
2022-10-21T09:05:30.250Z,15.72
2022-10-21T09:08:15.389Z,15.77
2022-10-21T09:10:54.734Z,15.83
2022-10-21T09:13:31.155Z,15.85
2022-10-21T09:16:06.652Z,15.86
2022-10-21T09:18:45.446Z,15.88
2022-10-21T09:21:21.099Z,15.89
2022-10-21T09:23:55.088Z,15.91
2022-10-21T09:26:36.303Z,15.94
2022-10-21T09:29:16.801Z,15.94
2022-10-21T09:31:45.758Z,15.96
2022-10-21T09:34:21.990Z,15.98
2022-10-21T09:36:51.242Z,15.97
2022-10-21T09:39:21.342Z,15.99
2022-10-21T09:41:55.425Z,16.01
2022-10-21T09:44:26.098Z,16.04
2022-10-21T09:46:55.358Z,16.02
2022-10-21T09:50:01.601Z,16.07
2022-10-21T09:52:18.781Z,16.08
2022-10-21T09:54:46.496Z,16.10
2022-10-21T09:57:15.719Z,16.10
2022-10-21T09:59:54.344Z,16.15
2022-10-21T10:02:29.146Z,16.20
2022-10-21T10:04:58.753Z,16.22
2022-10-21T10:07:34.686Z,16.24
2022-10-21T10:10:03.015Z,16.29
2022-10-21T10:12:30.664Z,16.31
2022-10-21T10:14:58.443Z,16.34
2022-10-21T10:17:29.861Z,16.36
2022-10-21T10:20:32.142Z,16.38
2022-10-21T10:23:11.234Z,16.41
2022-10-21T10:25:40.048Z,16.39
2022-10-21T10:28:20.108Z,16.44
2022-10-21T10:30:49.642Z,16.47
2022-10-21T10:33:20.719Z,16.47
2022-10-21T10:35:50.730Z,16.45
2022-10-21T10:38:26.446Z,16.47
2022-10-21T10:40:56.418Z,16.46
2022-10-21T10:43:29.442Z,16.37
2022-10-21T10:45:59.675Z,16.48
2022-10-21T10:48:32.652Z,16.50
2022-10-21T10:51:01.645Z,16.51
2022-10-21T10:53:31.962Z,16.51
2022-10-21T10:56:08.766Z,16.51
2022-10-21T10:58:38.171Z,16.46
2022-10-21T11:01:10.990Z,16.53
2022-10-21T11:03:42.392Z,16.52
2022-10-21T11:06:16.825Z,16.51
2022-10-21T11:08:48.580Z,16.51
2022-10-21T11:11:23.304Z,16.52
2022-10-21T11:13:51.009Z,16.53
2022-10-21T11:16:50.545Z,16.52
2022-10-21T11:19:29.116Z,16.50
2022-10-21T11:22:06.266Z,16.52
2022-10-21T11:24:51.330Z,16.53
2022-10-21T11:27:26.171Z,16.50
2022-10-21T11:30:01.707Z,16.52
2022-10-21T11:32:36.422Z,16.54
2022-10-21T11:35:16.451Z,16.54
2022-10-21T11:37:58.590Z,16.51
2022-10-21T11:40:32.137Z,16.48
2022-10-21T11:43:05.101Z,16.46
2022-10-21T11:45:40.751Z,16.40
2022-10-21T11:48:18.099Z,16.40
2022-10-21T11:50:49.254Z,16.38
2022-10-21T11:53:28.384Z,16.39
2022-10-21T11:56:04.020Z,16.37
2022-10-21T11:58:41.153Z,16.34
2022-10-21T12:01:24.008Z,16.34
2022-10-21T12:04:21.521Z,16.36
2022-10-21T12:06:55.763Z,16.29
2022-10-21T12:09:30.007Z,16.36
2022-10-21T12:12:01.474Z,16.36
2022-10-21T12:14:31.949Z,16.37
2022-10-21T12:17:01.803Z,16.37
2022-10-21T12:19:29.622Z,16.38
2022-10-21T12:21:57.592Z,16.39
2022-10-21T12:24:36.528Z,16.42
2022-10-21T12:27:08.433Z,16.43
2022-10-21T12:29:48.847Z,16.45
2022-10-21T12:32:25.630Z,16.46
2022-10-21T12:34:54.537Z,16.45
2022-10-21T12:37:44.755Z,16.46
2022-10-21T12:40:17.421Z,16.45
2022-10-21T12:42:47.778Z,16.43
2022-10-21T12:45:29.176Z,16.44
2022-10-21T12:47:57.436Z,16.45
2022-10-21T12:50:29.564Z,16.44
2022-10-21T12:53:06.357Z,16.46
2022-10-21T12:55:40.195Z,16.46
2022-10-21T12:58:19.641Z,16.51
2022-10-21T13:00:53.528Z,16.55
2022-10-21T13:03:23.015Z,16.57
2022-10-21T13:06:05.778Z,16.57
2022-10-21T13:08:54.988Z,16.60
2022-10-21T13:11:38.197Z,16.63
2022-10-21T13:14:35.321Z,16.67
2022-10-21T13:17:28.971Z,16.71
2022-10-21T13:19:57.630Z,16.73
2022-10-21T13:22:35.299Z,16.78
2022-10-21T13:25:11.932Z,16.81
2022-10-21T13:27:41.546Z,16.83
2022-10-21T13:30:09.621Z,16.87
2022-10-21T13:32:38.116Z,16.88
2022-10-21T13:35:26.532Z,16.92
2022-10-21T13:38:01.070Z,16.94
2022-10-21T13:40:32.909Z,16.95
2022-10-21T13:43:06.420Z,16.95
2022-10-21T13:45:36.442Z,16.96
2022-10-21T13:48:08.545Z,17.00
2022-10-21T13:50:40.043Z,17.01
2022-10-21T13:53:23.005Z,17.03
2022-10-21T13:56:04.198Z,17.07
2022-10-21T13:58:39.122Z,17.07
2022-10-21T14:01:11.608Z,17.07
2022-10-21T14:03:40.247Z,17.07
2022-10-21T14:06:09.557Z,17.07
2022-10-21T14:08:40.560Z,17.06
2022-10-21T14:11:13.917Z,17.07
2022-10-21T14:13:43.086Z,17.08
2022-10-21T14:16:11.559Z,17.07
2022-10-21T14:18:41.486Z,17.08
2022-10-21T14:21:13.102Z,17.08
2022-10-21T14:23:40.828Z,17.07
2022-10-21T14:26:09.954Z,17.06
2022-10-21T14:28:38.278Z,17.09
2022-10-21T14:31:11.414Z,17.09
2022-10-21T14:33:41.259Z,17.09
2022-10-21T14:36:12.605Z,17.08
2022-10-21T14:38:43.441Z,17.06
2022-10-21T14:41:17.907Z,17.09
2022-10-21T14:43:46.805Z,17.07
2022-10-21T14:46:16.662Z,17.11
2022-10-21T14:48:47.844Z,17.13
2022-10-21T14:51:21.183Z,17.17
2022-10-21T14:53:52.582Z,17.20
2022-10-21T14:56:22.662Z,17.22
2022-10-21T14:58:56.227Z,17.26
2022-10-21T15:01:25.845Z,17.30
2022-10-21T15:03:54.912Z,17.33
2022-10-21T15:06:24.852Z,17.28
2022-10-21T15:09:07.465Z,17.36
2022-10-21T15:11:38.268Z,17.37
2022-10-21T15:14:09.187Z,17.37
2022-10-21T15:16:38.200Z,17.39
2022-10-21T15:19:09.890Z,17.35
2022-10-21T15:21:40.511Z,17.39
2022-10-21T15:24:08.479Z,17.39
2022-10-21T15:26:37.702Z,17.40
2022-10-21T15:29:14.235Z,17.39
2022-10-21T15:31:43.593Z,17.39
2022-10-21T15:34:14.508Z,17.38
2022-10-21T15:36:42.645Z,17.35
2022-10-21T15:39:10.587Z,17.34
2022-10-21T15:41:38.811Z,17.33
2022-10-21T15:44:19.286Z,17.32
2022-10-21T15:46:50.047Z,17.32
2022-10-21T15:49:19.879Z,17.30
2022-10-21T15:51:48.549Z,17.32
2022-10-21T15:54:17.410Z,17.33
2022-10-21T15:56:46.233Z,17.31
2022-10-21T15:59:18.765Z,17.29
2022-10-21T16:01:48.237Z,17.29
2022-10-21T16:04:16.126Z,17.28
2022-10-21T16:06:47.805Z,17.26
2022-10-21T16:09:20.498Z,17.24
2022-10-21T16:11:58.920Z,17.21
2022-10-21T16:14:29.635Z,17.20
2022-10-21T16:16:59.977Z,17.19
2022-10-21T16:19:28.038Z,17.16
2022-10-21T16:21:55.635Z,17.14
2022-10-21T16:24:23.328Z,17.12
2022-10-21T16:26:51.300Z,17.11
2022-10-21T16:29:20.832Z,17.10
2022-10-21T16:31:48.877Z,17.08
2022-10-21T16:34:18.054Z,17.07
2022-10-21T16:36:45.719Z,17.06
2022-10-21T16:39:15.767Z,17.04
2022-10-21T16:41:43.493Z,17.01
2022-10-21T16:44:11.172Z,17.00
2022-10-21T16:46:40.281Z,16.98
2022-10-21T16:49:13.045Z,16.97
2022-10-21T16:51:43.081Z,16.96
2022-10-21T16:54:11.415Z,16.95
2022-10-21T16:56:39.179Z,16.91
2022-10-21T16:59:07.119Z,16.89
2022-10-21T17:01:35.072Z,16.89
2022-10-21T17:04:03.002Z,16.87
2022-10-21T17:06:30.758Z,16.86
2022-10-21T17:08:59.824Z,16.86
2022-10-21T17:11:33.077Z,16.81
2022-10-21T17:14:01.966Z,16.84
2022-10-21T17:16:29.745Z,16.85
2022-10-21T17:18:57.451Z,16.84
2022-10-21T17:21:26.573Z,16.84
2022-10-21T17:23:54.568Z,16.84
2022-10-21T17:26:23.889Z,16.84
2022-10-21T17:28:53.855Z,16.84
2022-10-21T17:31:24.057Z,16.84
2022-10-21T17:33:52.867Z,16.82
2022-10-21T17:36:20.519Z,16.86
2022-10-21T17:38:48.549Z,16.86
2022-10-21T17:41:17.785Z,16.85
2022-10-21T17:43:47.223Z,16.86
2022-10-21T17:46:18.822Z,16.86
2022-10-21T17:48:46.563Z,16.86
2022-10-21T17:51:14.183Z,16.84
2022-10-21T17:53:41.810Z,16.83
2022-10-21T17:56:09.453Z,16.83
2022-10-21T17:58:37.113Z,16.83
2022-10-21T18:01:09.526Z,16.82
2022-10-21T18:03:37.557Z,16.80
2022-10-21T18:06:06.571Z,16.79
2022-10-21T18:08:34.359Z,16.76
2022-10-21T18:11:02.622Z,16.75
2022-10-21T18:13:31.613Z,16.73
2022-10-21T18:16:03.379Z,16.70
2022-10-21T18:18:32.847Z,16.69
2022-10-21T18:21:05.254Z,16.66
2022-10-21T18:23:33.159Z,16.63
2022-10-21T18:26:03.743Z,16.58
2022-10-21T18:28:32.332Z,16.57
2022-10-21T18:31:01.326Z,16.56
2022-10-21T18:33:29.103Z,16.54
2022-10-21T18:35:58.227Z,16.51
2022-10-21T18:38:25.885Z,16.48
2022-10-21T18:41:01.827Z,16.47
2022-10-21T18:43:30.049Z,16.43
2022-10-21T18:45:57.737Z,16.42
2022-10-21T18:48:25.375Z,16.39
2022-10-21T18:50:53.045Z,16.37
2022-10-21T18:53:22.326Z,16.34
2022-10-21T18:55:49.995Z,16.30
2022-10-21T18:58:17.880Z,16.31
2022-10-21T19:00:45.478Z,16.31
2022-10-21T19:03:13.170Z,16.30
2022-10-21T19:05:43.011Z,16.29
2022-10-21T19:08:10.587Z,16.30
2022-10-21T19:10:40.682Z,16.29
2022-10-21T19:13:08.342Z,16.29
2022-10-21T19:15:36.337Z,16.27
2022-10-21T19:18:04.092Z,16.29
2022-10-21T19:20:32.337Z,16.26
2022-10-21T19:23:00.070Z,16.27
2022-10-21T19:25:28.355Z,16.27
2022-10-21T19:27:57.350Z,16.24
2022-10-21T19:30:25.043Z,16.25
2022-10-21T19:32:52.696Z,16.22
2022-10-21T19:35:20.369Z,16.20
2022-10-21T19:37:48.018Z,16.19
2022-10-21T19:40:15.756Z,16.20
2022-10-21T19:42:43.369Z,16.20
2022-10-21T19:45:16.901Z,16.19
2022-10-21T19:47:44.724Z,16.20
2022-10-21T19:50:12.549Z,16.19
2022-10-21T19:52:40.583Z,16.19
2022-10-21T19:55:08.937Z,16.20
2022-10-21T19:57:36.602Z,16.21
2022-10-21T20:00:05.284Z,16.20
2022-10-21T20:02:34.688Z,16.21
2022-10-21T20:05:02.321Z,16.18
2022-10-21T20:07:29.994Z,16.19
2022-10-21T20:09:57.936Z,16.15
2022-10-21T20:12:25.583Z,16.16
2022-10-21T20:14:53.232Z,16.16
2022-10-21T20:17:20.963Z,16.12
2022-10-21T20:19:50.099Z,16.14
2022-10-21T20:22:18.306Z,16.11
2022-10-21T20:24:46.581Z,16.09
2022-10-21T20:27:15.677Z,16.10
2022-10-21T20:29:43.387Z,16.06
2022-10-21T20:32:11.050Z,16.07
2022-10-21T20:34:39.689Z,16.05
2022-10-21T20:37:08.746Z,16.03
2022-10-21T20:39:37.828Z,16.02
2022-10-21T20:42:05.615Z,16.02
2022-10-21T20:44:33.262Z,16.00
2022-10-21T20:47:00.977Z,15.99
2022-10-21T20:49:28.613Z,15.97
2022-10-21T20:51:56.226Z,15.98
2022-10-21T20:54:25.936Z,15.96
2022-10-21T20:56:53.644Z,15.94
2022-10-21T20:59:21.327Z,15.94
2022-10-21T21:01:49.070Z,15.90
2022-10-21T21:04:18.156Z,15.87
2022-10-21T21:06:46.977Z,15.90
2022-10-21T21:12:04.856Z,15.88
2022-10-21T21:14:33.026Z,15.87
2022-10-21T21:17:00.690Z,15.85
2022-10-21T21:19:28.480Z,15.85
2022-10-21T21:21:56.250Z,15.85
2022-10-21T21:24:23.915Z,15.85
2022-10-21T21:26:51.523Z,15.85
2022-10-21T21:29:20.534Z,15.82
2022-10-21T21:31:48.288Z,15.84
2022-10-21T21:34:15.951Z,15.84
2022-10-21T21:36:43.586Z,15.84
2022-10-21T21:39:11.492Z,15.82
2022-10-21T21:41:39.226Z,15.81
2022-10-21T21:44:07.362Z,15.81
2022-10-21T21:46:36.413Z,15.82
2022-10-21T21:49:06.250Z,15.80
2022-10-21T21:51:35.350Z,15.79
2022-10-21T21:54:03.015Z,15.79
2022-10-21T21:56:30.763Z,15.78
2022-10-21T21:58:58.607Z,15.77
2022-10-21T22:01:27.485Z,15.76
2022-10-21T22:03:56.688Z,15.74
2022-10-21T22:09:00.882Z,15.74
2022-10-21T22:11:30.929Z,15.75
2022-10-21T22:13:59.247Z,15.75
2022-10-21T22:16:29.932Z,15.74
2022-10-21T22:19:00.303Z,15.72
2022-10-21T22:21:28.059Z,15.66
2022-10-21T22:23:55.845Z,15.70
2022-10-21T22:26:26.576Z,15.68
2022-10-21T22:28:54.347Z,15.64
2022-10-21T22:31:27.412Z,15.64
2022-10-21T22:34:00.740Z,15.62
2022-10-21T22:36:28.554Z,15.60
2022-10-21T22:38:56.197Z,15.60
2022-10-21T22:41:23.840Z,15.58
2022-10-21T22:43:51.443Z,15.57
2022-10-21T22:46:33.401Z,15.57
2022-10-21T22:49:03.684Z,15.56
2022-10-21T22:51:31.513Z,15.58
2022-10-21T22:53:59.259Z,15.57
2022-10-21T22:56:27.781Z,15.57
2022-10-21T22:58:57.130Z,15.58
2022-10-21T23:01:28.734Z,15.59
2022-10-21T23:03:57.229Z,15.57
2022-10-21T23:06:26.227Z,15.54
2022-10-21T23:08:53.945Z,15.56
2022-10-21T23:11:21.670Z,15.52
2022-10-21T23:14:02.098Z,15.54
2022-10-21T23:16:32.028Z,15.52
2022-10-21T23:18:59.827Z,15.50
2022-10-21T23:21:29.034Z,15.50
2022-10-21T23:23:57.189Z,15.49
2022-10-21T23:26:24.910Z,15.46
2022-10-21T23:28:52.623Z,15.45
2022-10-21T23:31:20.830Z,15.41
2022-10-21T23:33:48.901Z,15.43
2022-10-21T23:36:16.582Z,15.42
2022-10-21T23:38:45.655Z,15.43
2022-10-21T23:41:13.399Z,15.41
2022-10-21T23:43:41.005Z,15.41
2022-10-21T23:46:08.583Z,15.40
2022-10-21T23:48:36.321Z,15.38
2022-10-21T23:51:04.276Z,15.39
2022-10-21T23:53:31.949Z,15.40
2022-10-21T23:56:00.981Z,15.38
2022-10-21T23:58:28.625Z,15.38
